Time;durP1;ratioP1;P1;durP2;ratioP2;P2;SDS_P1;SDS_P2;PMS_P1;PMS_P2;Temp;Humidity;BMP_temperature;BMP_pressure;BME280_temperature;BME280_humidity;BME280_pressure;Samples;Min_cycle;Max_cycle;Signal;HPM_P1;HPM_P2
2023/08/02 00:00:07;;;;;;;36.28;32.95;;;20.50;99.90;;;;;;4974559;28;20114;-61
2023/08/02 00:02:33;;;;;;;36.95;33.40;;;20.40;99.90;;;;;;4972466;28;20062;-61
2023/08/02 00:04:58;;;;;;;37.58;33.28;;;19.90;99.90;;;;;;4974101;28;20078;-61
2023/08/02 00:07:24;;;;;;;36.80;33.47;;;20.10;99.90;;;;;;4973847;28;20392;-61
2023/08/02 00:09:49;;;;;;;37.72;33.92;;;20.40;99.90;;;;;;4973463;28;20042;-61
2023/08/02 00:12:15;;;;;;;38.05;34.47;;;19.30;99.90;;;;;;4973891;28;20128;-61
2023/08/02 00:14:41;;;;;;;38.92;35.03;;;19.20;99.90;;;;;;4973786;28;20050;-61
2023/08/02 00:17:06;;;;;;;40.28;36.25;;;19.40;99.90;;;;;;4973115;28;20035;-60
2023/08/02 00:19:32;;;;;;;38.00;34.38;;;20.10;99.90;;;;;;4973469;28;20106;-62
2023/08/02 00:21:58;;;;;;;37.47;33.97;;;19.20;99.90;;;;;;4973392;28;20035;-60
2023/08/02 00:24:23;;;;;;;37.53;33.85;;;20.50;99.90;;;;;;4973487;28;20038;-62
2023/08/02 00:26:49;;;;;;;38.28;34.75;;;19.20;99.90;;;;;;4972340;28;20125;-62
2023/08/02 00:29:14;;;;;;;38.88;35.50;;;20.50;99.90;;;;;;4973444;28;20424;-62
2023/08/02 00:31:40;;;;;;;39.00;35.47;;;20.50;99.90;;;;;;4972423;28;20080;-63
2023/08/02 00:34:05;;;;;;;39.97;36.28;;;20.60;99.90;;;;;;4973278;28;20043;-62
2023/08/02 00:36:31;;;;;;;40.05;36.45;;;19.40;99.90;;;;;;4972762;28;20046;-62
2023/08/02 00:38:56;;;;;;;40.10;36.28;;;20.30;99.90;;;;;;4988560;28;20082;-62
2023/08/02 00:41:22;;;;;;;41.20;37.25;;;20.60;99.90;;;;;;4973746;28;20046;-62
2023/08/02 00:43:47;;;;;;;40.50;36.67;;;19.70;99.90;;;;;;4971956;28;20042;-62
2023/08/02 00:46:15;;;;;;;39.22;35.92;;;19.60;99.90;;;;;;4973338;28;20529;-62
2023/08/02 00:48:42;;;;;;;40.38;36.75;;;20.40;99.90;;;;;;4972076;28;20120;-62
2023/08/02 00:51:15;;;;;;;41.40;37.95;;;19.50;99.90;;;;;;4972471;28;20045;-63
2023/08/02 00:53:41;;;;;;;43.38;39.35;;;19.60;99.90;;;;;;4972781;28;20097;-62
2023/08/02 00:56:07;;;;;;;40.97;37.08;;;20.20;99.90;;;;;;4972655;28;20042;-62
2023/08/02 00:58:32;;;;;;;41.72;37.88;;;20.50;99.90;;;;;;4973154;28;20089;-62
2023/08/02 01:01:11;;;;;;;40.83;37.00;;;20.20;99.90;;;;;;4973092;28;20043;-62
2023/08/02 01:03:41;;;;;;;41.00;37.28;;;19.20;99.90;;;;;;4973089;28;20049;-62
2023/08/02 01:06:46;;;;;;;42.42;38.35;;;19.10;99.90;;;;;;4972379;28;20046;-62
2023/08/02 01:09:34;;;;;;;43.58;39.55;;;19.90;99.90;;;;;;4970672;28;20560;-62
2023/08/02 01:12:08;;;;;;;42.83;38.95;;;19.50;99.90;;;;;;4973061;28;20070;-62
2023/08/02 01:14:39;;;;;;;43.50;39.33;;;20.40;99.90;;;;;;4972257;28;20123;-62
2023/08/02 01:17:06;;;;;;;41.60;37.70;;;20.20;99.90;;;;;;4972378;28;20050;-62
2023/08/02 01:19:32;;;;;;;42.58;38.78;;;19.50;99.90;;;;;;4972650;28;20089;-62
2023/08/02 01:21:57;;;;;;;42.08;38.25;;;20.30;99.90;;;;;;4971857;28;20043;-63
2023/08/02 01:24:32;;;;;;;42.28;38.40;;;20.10;99.90;;;;;;4972129;28;20097;-62
2023/08/02 01:26:59;;;;;;;41.55;38.03;;;19.40;99.90;;;;;;4972694;28;20050;-62
2023/08/02 01:29:27;;;;;;;43.97;39.58;;;20.20;99.90;;;;;;4972228;28;20050;-63
2023/08/02 01:31:55;;;;;;;42.33;38.22;;;19.50;99.90;;;;;;4972239;28;20058;-62
2023/08/02 01:34:21;;;;;;;42.35;38.25;;;19.00;99.90;;;;;;4972395;28;20449;-63
2023/08/02 01:36:47;;;;;;;43.67;39.22;;;20.40;99.90;;;;;;4972335;28;20108;-62
2023/08/02 01:39:14;;;;;;;42.35;38.53;;;20.10;99.90;;;;;;4972733;28;20050;-62
2023/08/02 01:41:40;;;;;;;43.83;39.80;;;20.40;99.90;;;;;;4971573;28;20062;-62
2023/08/02 01:44:05;;;;;;;45.30;41.03;;;20.20;99.90;;;;;;4971949;28;20042;-62
2023/08/02 01:46:31;;;;;;;43.25;39.08;;;20.40;99.90;;;;;;4972463;28;20046;-62
2023/08/02 01:48:56;;;;;;;45.38;41.30;;;18.90;99.90;;;;;;4972251;28;20042;-62
2023/08/02 01:51:23;;;;;;;45.00;40.47;;;20.30;99.90;;;;;;4971783;28;20045;-62
2023/08/02 01:53:49;;;;;;;45.97;41.25;;;18.90;99.90;;;;;;4971738;28;20034;-63
2023/08/02 01:56:14;;;;;;;44.97;40.33;;;18.70;99.90;;;;;;4971986;28;20468;-63
2023/08/02 01:58:40;;;;;;;43.55;39.40;;;19.50;99.90;;;;;;4972019;28;20074;-62
2023/08/02 02:01:06;;;;;;;45.03;40.38;;;20.40;99.90;;;;;;4970113;28;20046;-62
2023/08/02 02:03:31;;;;;;;44.63;40.42;;;19.60;99.90;;;;;;4972158;28;20047;-62
2023/08/02 02:05:57;;;;;;;43.17;39.08;;;19.80;99.90;;;;;;4971786;28;20520;-62
2023/08/02 02:08:22;;;;;;;45.03;40.58;;;20.40;99.90;;;;;;4971830;28;20050;-62
2023/08/02 02:10:52;;;;;;;44.03;39.92;;;19.20;99.90;;;;;;4971668;28;20039;-63
2023/08/02 02:13:19;;;;;;;44.70;40.58;;;19.50;99.90;;;;;;4971628;28;20054;-62
2023/08/02 02:15:44;;;;;;;44.50;40.25;;;20.10;99.90;;;;;;4971616;28;20047;-62
2023/08/02 02:18:10;;;;;;;44.42;40.22;;;18.70;99.90;;;;;;4970962;28;20053;-63
2023/08/02 02:20:35;;;;;;;46.33;41.28;;;18.80;99.90;;;;;;4971874;28;20050;-62
2023/08/02 02:23:01;;;;;;;44.67;40.67;;;20.50;99.90;;;;;;4971734;28;20027;-62
2023/08/02 02:25:27;;;;;;;44.75;40.78;;;18.70;99.90;;;;;;4971431;28;20122;-62
2023/08/02 02:27:52;;;;;;;43.10;39.40;;;19.00;99.90;;;;;;4971187;28;20055;-62
2023/08/02 02:30:18;;;;;;;42.90;39.25;;;20.40;99.90;;;;;;4971834;28;20450;-62
2023/08/02 02:32:43;;;;;;;44.25;39.85;;;20.10;99.90;;;;;;4971629;28;20073;-62
2023/08/02 02:35:12;;;;;;;43.10;39.40;;;19.70;99.90;;;;;;4971304;28;20046;-62
2023/08/02 02:37:38;;;;;;;43.85;39.58;;;20.40;99.90;;;;;;4970217;28;20134;-62
2023/08/02 02:40:05;;;;;;;42.45;38.42;;;18.90;99.90;;;;;;4971354;28;20130;-63
2023/08/02 02:42:30;;;;;;;41.85;37.78;;;18.70;99.90;;;;;;4971436;28;20519;-62
2023/08/02 02:44:56;;;;;;;42.35;38.63;;;18.60;99.90;;;;;;4971051;28;20035;-65
2023/08/02 02:47:21;;;;;;;42.42;38.72;;;19.30;99.90;;;;;;4971528;28;20067;-65
2023/08/02 02:49:47;;;;;;;41.75;37.78;;;20.10;99.90;;;;;;4971388;28;20039;-65
2023/08/02 02:52:12;;;;;;;43.53;39.13;;;19.90;99.90;;;;;;4971101;28;20049;-66
2023/08/02 02:54:39;;;;;;;42.30;38.50;;;18.90;99.90;;;;;;4970970;28;20047;-65
2023/08/02 02:57:05;;;;;;;43.25;39.15;;;19.90;99.90;;;;;;4969349;28;20039;-65
2023/08/02 02:59:32;;;;;;;42.67;38.55;;;19.30;99.90;;;;;;4971746;28;20047;-65
2023/08/02 03:01:58;;;;;;;42.03;38.10;;;19.40;99.90;;;;;;4971659;28;20042;-66
2023/08/02 03:04:24;;;;;;;42.58;38.63;;;19.80;99.90;;;;;;4971303;28;20055;-65
2023/08/02 03:06:51;;;;;;;43.67;39.35;;;18.70;99.90;;;;;;4971122;28;20519;-65
2023/08/02 03:09:16;;;;;;;43.35;38.88;;;20.30;99.90;;;;;;4971528;28;20050;-66
2023/08/02 03:11:42;;;;;;;42.90;38.55;;;19.90;99.90;;;;;;4970704;28;20039;-65
2023/08/02 03:14:08;;;;;;;42.58;38.20;;;20.10;99.90;;;;;;4971396;28;20042;-65
2023/08/02 03:16:33;;;;;;;44.20;39.65;;;19.60;99.90;;;;;;4971246;28;20047;-66
2023/08/02 03:18:59;;;;;;;45.17;40.55;;;18.60;99.90;;;;;;4972911;28;20120;-65
2023/08/02 03:21:24;;;;;;;43.40;38.85;;;19.90;99.90;;;;;;4974551;28;20050;-65
2023/08/02 03:23:50;;;;;;;45.63;38.85;;;20.00;99.90;;;;;;4974761;28;20043;-66
2023/08/02 03:26:15;;;;;;;44.33;39.47;;;19.80;99.90;;;;;;4974322;28;20392;-65
2023/08/02 03:28:41;;;;;;;43.00;38.30;;;19.40;99.90;;;;;;4975109;28;20085;-65
2023/08/02 03:31:06;;;;;;;44.42;38.33;;;20.40;99.90;;;;;;4974948;28;20101;-65
2023/08/02 03:33:32;;;;;;;42.40;37.92;;;18.40;99.90;;;;;;4973683;28;20043;-65
2023/08/02 03:35:58;;;;;;;42.28;37.83;;;20.40;99.90;;;;;;4956125;28;20405;-66
2023/08/02 03:38:23;;;;;;;43.72;38.95;;;18.70;99.90;;;;;;4974584;28;20114;-66
2023/08/02 03:40:49;;;;;;;44.60;39.65;;;18.50;99.90;;;;;;4974157;28;20046;-65
2023/08/02 03:43:14;;;;;;;43.65;38.92;;;20.40;99.90;;;;;;4989411;28;20050;-65
2023/08/02 03:45:40;;;;;;;44.40;39.90;;;20.40;99.90;;;;;;4973673;28;20037;-65
2023/08/02 03:48:05;;;;;;;47.30;40.22;;;18.80;99.90;;;;;;4974364;28;20043;-65
2023/08/02 03:50:33;;;;;;;49.45;40.67;;;19.70;99.90;;;;;;4973863;28;20053;-65
2023/08/02 03:52:59;;;;;;;48.92;39.47;;;18.50;99.90;;;;;;4955922;28;20055;-65
2023/08/02 03:55:24;;;;;;;48.28;38.95;;;18.70;99.90;;;;;;4973031;28;20070;-62
2023/08/02 03:57:50;;;;;;;50.45;40.47;;;20.20;99.90;;;;;;4974341;28;20035;-62
2023/08/02 04:00:15;;;;;;;44.97;38.88;;;20.90;99.90;;;;;;4974370;28;20042;-62
2023/08/02 04:02:41;;;;;;;53.10;38.92;;;18.90;99.90;;;;;;4973647;28;20122;-62
2023/08/02 04:05:07;;;;;;;45.25;40.35;;;19.60;99.90;;;;;;4973399;28;20500;-62
2023/08/02 04:07:32;;;;;;;47.20;38.45;;;18.70;99.90;;;;;;4973952;28;20046;-62
2023/08/02 04:09:58;;;;;;;46.67;39.22;;;18.70;99.90;;;;;;4973804;28;20533;-62
2023/08/02 04:12:23;;;;;;;49.63;39.38;;;20.00;99.90;;;;;;4954787;29;20493;-62
2023/08/02 04:14:49;;;;;;;45.40;40.28;;;21.00;99.90;;;;;;4954915;28;20051;-62
2023/08/02 04:17:14;;;;;;;44.67;39.70;;;20.50;99.90;;;;;;4972249;28;20054;-62
2023/08/02 04:19:40;;;;;;;50.78;41.17;;;20.60;99.90;;;;;;4973614;28;20113;-62
2023/08/02 04:22:05;;;;;;;49.28;39.45;;;21.00;99.90;;;;;;4973472;28;20038;-62
2023/08/02 04:24:32;;;;;;;45.53;40.40;;;20.00;99.90;;;;;;4973749;28;20095;-62
2023/08/02 04:26:58;;;;;;;47.00;42.05;;;20.10;99.90;;;;;;4972988;28;20047;-62
2023/08/02 04:29:23;;;;;;;46.08;41.30;;;21.00;99.90;;;;;;4973134;28;20527;-62
2023/08/02 04:31:49;;;;;;;51.70;42.35;;;18.70;99.90;;;;;;4973962;28;20057;-62
2023/08/02 04:34:14;;;;;;;48.45;43.35;;;20.20;99.90;;;;;;4973516;28;20703;-62
2023/08/02 04:36:40;;;;;;;46.88;41.80;;;20.60;99.90;;;;;;4973021;28;20037;-62
2023/08/02 04:39:07;;;;;;;50.78;42.90;;;20.90;99.90;;;;;;4972963;28;20101;-62
2023/08/02 04:41:33;;;;;;;48.65;42.53;;;18.60;99.90;;;;;;4973542;28;20031;-62
2023/08/02 04:43:58;;;;;;;47.35;42.25;;;18.70;99.90;;;;;;4973571;28;20448;-62
2023/08/02 04:46:27;;;;;;;48.05;42.80;;;19.80;99.90;;;;;;4973613;28;20051;-62
2023/08/02 04:48:52;;;;;;;48.20;43.00;;;19.10;99.90;;;;;;4973335;28;20382;-62
2023/08/02 04:51:18;;;;;;;50.65;42.92;;;19.00;99.90;;;;;;4972907;28;20101;-62
2023/08/02 04:53:47;;;;;;;47.92;42.95;;;18.50;99.90;;;;;;4972703;28;20512;-62
2023/08/02 04:56:13;;;;;;;49.30;43.03;;;20.70;99.90;;;;;;4972992;28;20042;-62
2023/08/02 04:58:39;;;;;;;51.45;42.97;;;18.90;99.90;;;;;;4972984;28;20034;-62
2023/08/02 05:01:08;;;;;;;48.95;43.40;;;20.10;99.90;;;;;;4972779;28;20038;-62
2023/08/02 05:03:34;;;;;;;50.78;44.08;;;20.20;99.90;;;;;;4970787;28;20500;-62
2023/08/02 05:06:05;;;;;;;48.63;43.13;;;20.80;99.90;;;;;;4970163;28;20074;-61
2023/08/02 05:08:32;;;;;;;49.10;43.97;;;19.60;99.90;;;;;;4970875;28;20035;-62
2023/08/02 05:10:58;;;;;;;48.97;43.30;;;18.70;99.90;;;;;;4966030;28;20046;-60
2023/08/02 05:13:25;;;;;;;51.33;44.60;;;20.60;99.90;;;;;;4971071;28;20034;-62
2023/08/02 05:15:51;;;;;;;51.05;43.78;;;19.80;99.90;;;;;;4965626;28;20039;-61
2023/08/02 05:18:17;;;;;;;53.90;43.55;;;18.90;99.90;;;;;;4965366;28;20157;-61
2023/08/02 05:20:43;;;;;;;52.40;45.28;;;18.80;99.90;;;;;;4967310;28;20042;-61
2023/08/02 05:23:08;;;;;;;50.42;44.92;;;20.60;99.90;;;;;;4966543;28;20042;-62
2023/08/02 05:25:35;;;;;;;52.33;44.85;;;19.10;99.90;;;;;;4971688;28;20139;-61
2023/08/02 05:28:01;;;;;;;51.58;44.75;;;20.70;99.90;;;;;;4972100;28;20182;-60
2023/08/02 05:30:28;;;;;;;50.08;43.83;;;20.60;99.90;;;;;;4972500;28;20142;-61
2023/08/02 05:32:54;;;;;;;53.42;45.38;;;18.70;99.90;;;;;;4971540;28;20034;-60
2023/08/02 05:35:20;;;;;;;51.13;44.78;;;19.20;99.90;;;;;;4959828;28;20058;-61
2023/08/02 05:37:45;;;;;;;47.15;42.05;;;19.60;99.90;;;;;;4970521;28;20046;-59
2023/08/02 05:40:11;;;;;;;48.83;43.42;;;18.80;99.90;;;;;;4970041;28;20105;-60
2023/08/02 05:42:37;;;;;;;49.50;43.72;;;20.40;99.90;;;;;;4970143;28;20118;-61
2023/08/02 05:45:03;;;;;;;49.42;43.95;;;19.20;99.90;;;;;;4972176;28;20533;-61
2023/08/02 05:47:29;;;;;;;51.15;44.65;;;20.10;99.90;;;;;;4972000;28;20048;-59
2023/08/02 05:49:55;;;;;;;48.15;43.05;;;20.30;99.90;;;;;;4970396;28;20425;-61
2023/08/02 05:52:20;;;;;;;52.45;44.08;;;19.90;99.90;;;;;;4969977;28;20050;-61
2023/08/02 05:54:46;;;;;;;49.78;43.97;;;20.40;99.90;;;;;;4970037;28;20456;-60
2023/08/02 05:57:11;;;;;;;49.80;44.35;;;18.60;99.90;;;;;;4971477;28;20441;-60
2023/08/02 05:59:38;;;;;;;50.13;44.78;;;20.70;99.90;;;;;;4969283;28;20501;-60
2023/08/02 06:02:04;;;;;;;49.08;43.92;;;19.40;99.90;;;;;;4971923;28;20038;-62
2023/08/02 06:04:32;;;;;;;49.15;43.95;;;18.70;99.90;;;;;;4969897;28;20109;-60
2023/08/02 06:06:58;;;;;;;49.75;44.50;;;18.90;99.90;;;;;;4970094;28;20050;-60
2023/08/02 06:09:23;;;;;;;51.20;43.00;;;19.60;99.90;;;;;;4970379;28;20038;-60
2023/08/02 06:11:49;;;;;;;50.72;43.55;;;19.70;99.90;;;;;;4961952;28;20066;-60
2023/08/02 06:14:14;;;;;;;49.10;43.72;;;18.90;99.90;;;;;;4963493;28;20050;-61
2023/08/02 06:16:40;;;;;;;51.03;42.92;;;20.70;99.90;;;;;;4965325;28;20101;-61
2023/08/02 06:19:05;;;;;;;47.13;42.03;;;19.60;99.90;;;;;;4965294;28;20742;-60
2023/08/02 06:21:31;;;;;;;47.78;42.67;;;20.80;99.90;;;;;;4966334;28;21804;-60
2023/08/02 06:23:56;;;;;;;46.05;41.38;;;19.90;99.90;;;;;;4968969;28;20058;-59
2023/08/02 06:26:22;;;;;;;48.33;43.20;;;20.10;99.90;;;;;;4964995;28;20115;-61
2023/08/02 06:28:48;;;;;;;47.08;42.03;;;20.50;99.90;;;;;;4964105;28;20043;-61
2023/08/02 06:31:13;;;;;;;47.17;42.17;;;20.20;99.90;;;;;;4963814;28;20528;-61
2023/08/02 06:33:39;;;;;;;47.40;42.28;;;20.60;99.90;;;;;;4962955;28;20126;-59
2023/08/02 06:36:05;;;;;;;49.15;43.83;;;20.30;99.90;;;;;;4962814;28;20051;-60
2023/08/02 06:38:32;;;;;;;49.42;44.10;;;18.70;99.90;;;;;;4965992;28;20497;-61
2023/08/02 06:40:57;;;;;;;48.08;43.28;;;18.60;99.90;;;;;;4962927;28;20046;-60
2023/08/02 06:43:23;;;;;;;48.13;43.00;;;20.30;99.90;;;;;;4964956;28;20050;-61
2023/08/02 06:45:49;;;;;;;46.95;42.13;;;19.90;99.90;;;;;;4965631;28;20046;-61
2023/08/02 06:48:19;;;;;;;47.25;42.25;;;18.60;99.90;;;;;;4964794;28;20043;-61
2023/08/02 06:50:44;;;;;;;48.75;42.25;;;18.70;99.90;;;;;;4966954;28;20508;-62
2023/08/02 06:53:10;;;;;;;47.13;42.33;;;19.10;99.90;;;;;;4964945;28;20050;-61
2023/08/02 06:55:35;;;;;;;46.70;41.80;;;18.40;99.90;;;;;;4961141;28;20500;-61
2023/08/02 06:58:01;;;;;;;47.17;42.15;;;18.50;99.90;;;;;;4967439;28;20532;-61
2023/08/02 07:00:29;;;;;;;45.45;40.67;;;18.50;99.90;;;;;;4965675;28;20084;-61
2023/08/02 07:02:59;;;;;;;49.22;41.47;;;20.40;99.90;;;;;;4962286;28;20046;-62
2023/08/02 07:05:28;;;;;;;46.30;41.10;;;18.40;99.90;;;;;;4964956;28;20046;-62
2023/08/02 07:07:54;;;;;;;47.17;39.80;;;19.00;99.90;;;;;;4960299;28;20586;-61
2023/08/02 07:10:20;;;;;;;44.58;39.97;;;19.60;99.90;;;;;;4961931;28;20047;-62
2023/08/02 07:12:45;;;;;;;48.75;40.03;;;19.30;99.90;;;;;;4962795;28;20587;-61
2023/08/02 07:15:11;;;;;;;44.30;39.47;;;19.10;99.90;;;;;;4961337;28;20139;-61
2023/08/02 07:17:36;;;;;;;42.92;38.42;;;18.80;99.90;;;;;;4961546;28;20061;-63
2023/08/02 07:20:02;;;;;;;41.45;37.03;;;20.20;99.90;;;;;;4961065;28;20047;-62
2023/08/02 07:22:28;;;;;;;45.88;38.00;;;18.50;99.90;;;;;;4962536;28;20141;-61
2023/08/02 07:24:54;;;;;;;42.33;38.00;;;19.30;99.90;;;;;;4961898;28;20822;-65
2023/08/02 07:27:19;;;;;;;40.83;36.45;;;18.40;99.90;;;;;;4964398;28;20560;-65
2023/08/02 07:29:49;;;;;;;38.17;33.35;;;20.40;99.90;;;;;;4964558;28;20676;-66
2023/08/02 07:32:14;;;;;;;36.80;33.08;;;20.40;99.90;;;;;;4960971;28;20047;-65
2023/08/02 07:34:40;;;;;;;36.10;32.40;;;20.40;99.90;;;;;;4961478;28;20102;-65
2023/08/02 07:37:06;;;;;;;35.92;30.98;;;20.50;99.90;;;;;;4958648;28;20059;-65
2023/08/02 07:39:31;;;;;;;37.25;33.50;;;19.60;99.90;;;;;;4960983;28;20047;-66
2023/08/02 07:41:57;;;;;;;35.85;31.85;;;20.40;99.90;;;;;;4960943;28;20030;-71
2023/08/02 07:44:22;;;;;;;34.30;31.08;;;18.20;99.90;;;;;;4960501;28;20049;-65
2023/08/02 07:46:50;;;;;;;34.95;30.75;;;18.90;99.90;;;;;;4961265;28;20066;-65
2023/08/02 07:49:15;;;;;;;35.53;32.13;;;20.50;99.90;;;;;;4962766;28;20100;-65
2023/08/02 07:51:41;;;;;;;34.83;31.05;;;19.60;99.90;;;;;;4958540;28;20059;-65
2023/08/02 07:54:06;;;;;;;33.25;29.98;;;18.60;99.90;;;;;;4961238;28;20456;-65
2023/08/02 07:56:32;;;;;;;33.90;30.35;;;18.80;99.90;;;;;;4963719;28;20498;-65
2023/08/02 07:58:58;;;;;;;34.60;30.88;;;18.20;99.90;;;;;;4962242;28;20078;-65
2023/08/02 08:01:23;;;;;;;34.00;30.80;;;20.30;99.90;;;;;;4963621;28;20042;-65
2023/08/02 08:03:49;;;;;;;34.33;30.83;;;20.50;99.90;;;;;;4962330;28;20043;-65
2023/08/02 08:06:16;;;;;;;34.97;31.52;;;18.40;99.90;;;;;;4964273;28;20497;-65
2023/08/02 08:08:42;;;;;;;34.17;30.98;;;19.50;99.90;;;;;;4966462;28;20094;-65
2023/08/02 08:11:08;;;;;;;33.00;29.92;;;19.90;99.90;;;;;;4961274;28;20050;-65
2023/08/02 08:13:34;;;;;;;34.92;31.40;;;20.60;99.90;;;;;;4962041;28;20058;-66
2023/08/02 08:16:00;;;;;;;34.20;31.20;;;20.50;99.90;;;;;;4959865;28;20807;-66
2023/08/02 08:18:29;;;;;;;33.63;30.65;;;20.50;99.90;;;;;;4964350;28;20050;-66
2023/08/02 08:20:54;;;;;;;34.85;31.48;;;19.30;99.90;;;;;;4957779;28;20560;-66
2023/08/02 08:23:20;;;;;;;34.25;31.13;;;18.20;99.90;;;;;;4961298;28;20044;-67
2023/08/02 08:25:45;;;;;;;35.55;32.28;;;19.10;99.90;;;;;;4964430;28;20114;-66
2023/08/02 08:28:11;;;;;;;33.72;30.55;;;20.60;99.90;;;;;;4962898;28;20082;-66
2023/08/02 08:30:37;;;;;;;34.17;31.25;;;19.80;99.90;;;;;;4965497;28;20035;-66
2023/08/02 08:33:04;;;;;;;35.40;32.28;;;20.20;99.90;;;;;;4964334;28;20462;-66
2023/08/02 08:35:32;;;;;;;33.58;30.60;;;20.70;99.90;;;;;;4961617;28;20146;-65
2023/08/02 08:37:58;;;;;;;32.40;29.70;;;20.80;99.90;;;;;;4965895;28;20055;-64
2023/08/02 08:40:24;;;;;;;31.67;28.77;;;18.10;99.90;;;;;;4960514;28;20870;-64
2023/08/02 08:42:55;;;;;;;34.15;31.05;;;19.60;99.90;;;;;;4967151;28;20424;-64
2023/08/02 08:45:23;;;;;;;32.22;29.45;;;17.90;99.90;;;;;;4961807;28;20118;-65
2023/08/02 08:47:49;;;;;;;32.85;30.13;;;18.50;99.90;;;;;;4963072;28;20046;-64
2023/08/02 08:50:17;;;;;;;30.77;28.08;;;18.10;99.90;;;;;;4962988;28;21674;-67
2023/08/02 08:52:46;;;;;;;29.98;27.40;;;17.80;99.90;;;;;;4961183;28;20045;-64
2023/08/02 08:55:16;;;;;;;28.95;26.23;;;17.80;99.90;;;;;;4967400;28;20057;-64
2023/08/02 08:57:43;;;;;;;30.77;28.13;;;19.30;99.90;;;;;;4962365;28;20567;-64
2023/08/02 09:00:10;;;;;;;28.38;26.08;;;18.10;99.90;;;;;;4976578;28;20067;-67
2023/08/02 09:02:39;;;;;;;28.70;26.30;;;20.90;99.90;;;;;;4962606;28;20051;-66
2023/08/02 09:05:06;;;;;;;28.30;25.92;;;17.80;99.90;;;;;;4965676;28;20109;-66
2023/08/02 09:07:31;;;;;;;28.42;25.92;;;20.60;99.90;;;;;;4961707;28;20047;-67
2023/08/02 09:09:57;;;;;;;29.10;26.70;;;20.90;99.90;;;;;;4965441;28;20061;-65
2023/08/02 09:12:24;;;;;;;27.67;25.38;;;17.70;99.90;;;;;;4962038;28;20042;-65
2023/08/02 09:15:07;;;;;;;27.77;25.27;;;20.70;99.90;;;;;;4963048;28;20126;-67
2023/08/02 09:17:52;;;;;;;28.70;26.40;;;20.90;99.90;;;;;;4963673;28;20054;-66
2023/08/02 09:20:22;;;;;;;28.15;25.75;;;18.10;99.90;;;;;;4963695;28;20047;-69
2023/08/02 09:22:48;;;;;;;30.15;27.80;;;18.30;99.90;;;;;;4978374;28;20053;-66
2023/08/02 09:25:28;;;;;;;29.05;26.77;;;19.40;99.90;;;;;;4960479;28;20665;-68
2023/08/02 09:27:56;;;;;;;31.70;29.17;;;18.10;99.90;;;;;;4965077;28;20057;-66
2023/08/02 09:30:27;;;;;;;32.10;29.50;;;17.70;99.90;;;;;;4958583;28;20144;-68
2023/08/02 09:33:02;;;;;;;29.55;27.15;;;19.30;99.90;;;;;;4959041;28;20501;-66
2023/08/02 09:35:31;;;;;;;29.67;27.27;;;20.80;99.90;;;;;;4964347;28;20075;-67
2023/08/02 09:37:57;;;;;;;28.00;25.63;;;19.60;99.90;;;;;;4949814;28;20058;-66
2023/08/02 09:40:37;;;;;;;30.73;28.23;;;20.60;99.90;;;;;;4960771;28;20394;-67
2023/08/02 09:43:03;;;;;;;29.65;27.05;;;18.20;99.90;;;;;;4961195;28;20043;-67
2023/08/02 09:45:32;;;;;;;30.17;27.55;;;20.80;99.90;;;;;;4960180;28;20055;-68
2023/08/02 09:47:57;;;;;;;28.38;26.15;;;19.70;99.90;;;;;;4962757;28;20153;-66
2023/08/02 09:50:23;;;;;;;31.40;28.80;;;20.90;99.90;;;;;;4959127;28;20141;-67
2023/08/02 09:52:48;;;;;;;29.17;26.70;;;18.30;99.90;;;;;;4963862;28;20382;-66
2023/08/02 09:55:14;;;;;;;32.80;30.13;;;20.20;99.90;;;;;;4976321;28;20051;-66
2023/08/02 09:57:44;;;;;;;32.20;29.80;;;19.00;99.90;;;;;;4964036;28;20051;-68
2023/08/02 10:00:10;;;;;;;30.20;27.80;;;19.80;99.90;;;;;;4960250;28;20042;-67
2023/08/02 10:02:36;;;;;;;32.53;29.67;;;20.90;99.90;;;;;;4977266;28;20047;-67
2023/08/02 10:05:05;;;;;;;31.75;29.33;;;18.50;99.90;;;;;;4961062;28;20485;-68
2023/08/02 10:07:52;;;;;;;31.55;29.00;;;19.70;99.90;;;;;;4963275;28;20069;-69
2023/08/02 10:10:24;;;;;;;30.13;27.83;;;19.30;99.90;;;;;;4977623;28;20157;-67
2023/08/02 10:12:58;;;;;;;30.92;28.52;;;19.00;99.90;;;;;;4980071;28;20049;-68
2023/08/02 10:15:26;;;;;;;31.00;28.63;;;18.30;99.90;;;;;;4963871;28;20070;-67
2023/08/02 10:17:54;;;;;;;29.00;26.80;;;19.70;99.90;;;;;;4960490;28;20062;-69
2023/08/02 10:20:20;;;;;;;29.05;26.75;;;20.50;99.90;;;;;;4959761;28;21155;-66
2023/08/02 10:22:47;;;;;;;30.02;27.77;;;19.80;99.90;;;;;;4959275;28;20051;-68
2023/08/02 10:25:16;;;;;;;30.15;27.80;;;20.80;99.90;;;;;;4962834;28;20043;-68
2023/08/02 10:27:43;;;;;;;27.55;25.40;;;21.00;99.90;;;;;;4960985;28;20043;-69
2023/08/02 10:30:10;;;;;;;32.65;30.08;;;18.70;99.90;;;;;;4958293;28;20054;-67
2023/08/02 10:32:35;;;;;;;29.45;27.33;;;18.50;99.90;;;;;;4964466;28;20050;-69
2023/08/02 10:35:01;;;;;;;31.75;29.35;;;19.30;99.90;;;;;;4961451;28;20492;-69
2023/08/02 10:37:50;;;;;;;28.48;26.23;;;20.70;99.90;;;;;;4961154;28;20416;-69
2023/08/02 10:40:16;;;;;;;28.42;26.30;;;21.00;99.90;;;;;;4972868;28;20051;-69
2023/08/02 10:43:01;;;;;;;27.30;25.25;;;18.50;99.90;;;;;;4961654;28;20041;-70
2023/08/02 10:45:27;;;;;;;31.42;29.10;;;18.40;99.90;;;;;;4959045;28;20070;-70
2023/08/02 10:48:25;;;;;;;28.50;26.40;;;18.50;99.90;;;;;;4956081;28;20074;-66
2023/08/02 10:50:52;;;;;;;28.65;26.33;;;18.70;99.90;;;;;;4979080;28;20047;-68
2023/08/02 10:53:18;;;;;;;26.65;24.65;;;18.40;99.90;;;;;;4960011;28;20050;-70
2023/08/02 10:56:08;;;;;;;32.15;29.73;;;22.20;99.90;;;;;;4959568;28;20069;-69
2023/08/02 10:58:48;;;;;;;33.00;30.60;;;21.50;99.90;;;;;;4956617;28;20042;-66
2023/08/02 11:01:13;;;;;;;28.77;26.63;;;19.00;99.90;;;;;;4976860;28;20034;-67
2023/08/02 11:03:39;;;;;;;30.58;28.38;;;19.60;99.90;;;;;;4972877;28;20531;-70
2023/08/02 11:06:05;;;;;;;31.45;29.08;;;22.00;99.90;;;;;;4957995;28;20050;-69
2023/08/02 11:08:45;;;;;;;32.95;30.55;;;18.80;99.90;;;;;;4955517;28;20057;-68
2023/08/02 11:11:11;;;;;;;31.00;28.42;;;19.20;99.90;;;;;;4956606;28;20062;-70
2023/08/02 11:13:40;;;;;;;31.80;29.48;;;18.90;99.90;;;;;;4958081;28;20051;-70
2023/08/02 11:16:06;;;;;;;27.75;25.70;;;19.90;99.90;;;;;;4962352;28;20043;-69
2023/08/02 11:18:33;;;;;;;29.13;26.83;;;19.30;99.90;;;;;;4960608;28;20089;-68
2023/08/02 11:21:09;;;;;;;29.95;27.70;;;19.60;99.90;;;;;;4957269;28;20609;-71
2023/08/02 11:23:34;;;;;;;32.80;30.20;;;21.70;99.90;;;;;;4958498;28;20050;-69
2023/08/02 11:26:11;;;;;;;30.52;28.23;;;19.20;99.90;;;;;;4960140;28;20077;-68
2023/08/02 11:28:43;;;;;;;29.52;27.27;;;21.20;99.90;;;;;;4958899;28;20078;-69
2023/08/02 11:31:12;;;;;;;32.55;30.15;;;20.90;99.90;;;;;;4959352;28;20049;-67
2023/08/02 11:33:40;;;;;;;30.88;28.58;;;22.60;99.90;;;;;;4961007;28;20046;-67
2023/08/02 11:36:06;;;;;;;31.20;28.85;;;23.10;99.90;;;;;;4959655;28;20122;-67
2023/08/02 11:38:32;;;;;;;29.95;27.65;;;20.60;99.90;;;;;;4958926;28;20062;-67
2023/08/02 11:40:58;;;;;;;30.63;28.33;;;22.20;99.90;;;;;;4963644;28;20097;-66
2023/08/02 11:43:37;;;;;;;30.67;28.45;;;21.90;99.90;;;;;;4962231;28;20508;-67
2023/08/02 11:46:21;;;;;;;31.65;29.35;;;20.00;99.90;;;;;;4966550;28;20046;-68
2023/08/02 11:48:51;;;;;;;33.00;30.50;;;23.10;99.90;;;;;;4976242;28;20039;-68
2023/08/02 11:51:21;;;;;;;33.85;31.25;;;23.30;99.90;;;;;;4960672;28;20126;-66
2023/08/02 11:53:51;;;;;;;32.42;30.02;;;21.10;99.90;;;;;;4963381;28;20039;-67
2023/08/02 11:56:17;;;;;;;30.95;28.55;;;23.40;99.90;;;;;;4962373;28;20043;-66
2023/08/02 11:58:44;;;;;;;31.02;28.73;;;20.70;99.90;;;;;;4966963;28;20055;-68
2023/08/02 12:01:11;;;;;;;32.08;29.58;;;19.90;99.90;;;;;;4959907;28;20039;-66
2023/08/02 12:03:36;;;;;;;33.53;30.95;;;20.90;99.90;;;;;;4957820;28;20398;-67
2023/08/02 12:06:02;;;;;;;32.80;30.35;;;20.40;99.90;;;;;;4961288;28;20042;-73
2023/08/02 12:08:28;;;;;;;34.15;31.25;;;21.50;99.90;;;;;;4961249;28;20074;-75
2023/08/02 12:10:53;;;;;;;33.65;31.05;;;21.40;99.90;;;;;;4963610;28;20039;-72
2023/08/02 12:13:20;;;;;;;34.65;31.80;;;20.30;99.90;;;;;;4961914;28;20050;-73
2023/08/02 12:16:04;;;;;;;36.20;33.05;;;20.30;99.90;;;;;;4961126;28;20125;-73
2023/08/02 12:18:29;;;;;;;36.05;33.00;;;24.40;99.90;;;;;;4951553;28;20039;-73
2023/08/02 12:20:55;;;;;;;37.20;33.63;;;20.80;99.90;;;;;;4964334;28;20548;-73
2023/08/02 12:23:32;;;;;;;37.35;33.85;;;20.90;99.90;;;;;;4980079;28;20047;-75
2023/08/02 12:25:57;;;;;;;34.38;31.38;;;24.80;99.90;;;;;;4965197;28;20054;-71
2023/08/02 12:28:23;;;;;;;33.75;30.45;;;22.60;99.90;;;;;;4962334;28;20497;-72